Lennig, Virginia
Current Conditions -  °F | °C
As of 5:55 PM on Thursday 18 Dec 2014 (Local Time) from K0V4 Reporting Station
Scattered Clouds Scattered Clouds  
Wind Chill: 33°   Ceiling: Unl
Heat Index: 37°   Visibility: 10mi
Dew Point: 26°   Wind: 5mph
Humidity: 66%   Direction: 230°SW
Pressure: 30.1"   Gusts: NA
Location:  36.9437°N, 78.9715°W
Report Text: K0V4 182255Z AUTO 23004KT 10SM SCT100 03/M03 A3010 RMK AO1 T00271031
Loading
Personal Weather Stations






























Interactive Weather Map New forecast layout! Learn more

10-Day Weather Forecast

Advertisements
Track Severe Weather on mobile